TCA7378 KJAX-KIAH
Flight info
| Callsign | TCA7378 |
|---|---|
| Flight time | 2h 5m |
| Altitude | 34000 |
| Route | JETIN2 CAPPS CABLO DEFUN J2 SJI NNCEE2 |
| Aircraft | B738/M-SDE2E3FGHIRWXY/LB1 |
Departure
| Time | 2026-04-30 20:32 |
|---|---|
| Airport | Jacksonville International Airport (KJAX) |
Arrival
| Time | 2026-04-30 22:38 |
|---|---|
| Airport | George Bush Intercontinental Airport (KIAH) |
| Time | Latitude | Longitude | Altitude | Speed | Heading |
|---|---|---|---|---|---|
| 2026-04-30 20:11 | 30.49372 | -81.68624 | 34 ft | 0 kts | 128° |
| 2026-04-30 20:27 | 30.49354 | -81.68632 | 33 ft | 8 kts | 243° |
| 2026-04-30 20:27 | 30.49509 | -81.68590 | 33 ft | 17 kts | 50° |
| 2026-04-30 20:28 | 30.49724 | -81.68480 | 33 ft | 19 kts | 11° |
| 2026-04-30 20:28 | 30.49899 | -81.68281 | 33 ft | 21 kts | 70° |
| 2026-04-30 20:29 | 30.50002 | -81.67943 | 33 ft | 24 kts | 70° |
| 2026-04-30 20:30 | 30.50180 | -81.67361 | 34 ft | 27 kts | 70° |
| 2026-04-30 20:30 | 30.50409 | -81.66963 | 34 ft | 19 kts | 341° |
| 2026-04-30 20:31 | 30.50518 | -81.67069 | 34 ft | 9 kts | 250° |
| 2026-04-30 20:32 | 30.50242 | -81.67975 | 35 ft | 128 kts | 250° |
| 2026-04-30 20:32 | 30.49470 | -81.70484 | 1050 ft | 178 kts | 250° |
| 2026-04-30 20:33 | 30.49082 | -81.71913 | 1780 ft | 190 kts | 253° |
| 2026-04-30 20:33 | 30.48580 | -81.73967 | 2342 ft | 215 kts | 255° |
| 2026-04-30 20:33 | 30.48157 | -81.75706 | 2549 ft | 239 kts | 255° |
| 2026-04-30 20:34 | 30.47201 | -81.79603 | 3781 ft | 256 kts | 255° |
| 2026-04-30 20:34 | 30.46564 | -81.82170 | 5035 ft | 256 kts | 255° |
| 2026-04-30 20:35 | 30.46069 | -81.84167 | 5921 ft | 257 kts | 255° |
| 2026-04-30 20:35 | 30.45573 | -81.86160 | 6801 ft | 258 kts | 255° |
| 2026-04-30 20:35 | 30.44568 | -81.90201 | 8411 ft | 263 kts | 256° |
| 2026-04-30 20:36 | 30.44064 | -81.92221 | 9196 ft | 266 kts | 256° |
| 2026-04-30 20:36 | 30.43551 | -81.94290 | 10008 ft | 267 kts | 256° |
| 2026-04-30 20:36 | 30.42470 | -81.98622 | 10767 ft | 301 kts | 256° |
| 2026-04-30 20:37 | 30.41868 | -82.01040 | 10936 ft | 323 kts | 256° |
| 2026-04-30 20:37 | 30.41236 | -82.03620 | 11107 ft | 342 kts | 257° |
| 2026-04-30 20:37 | 30.40598 | -82.06331 | 11414 ft | 354 kts | 257° |
| 2026-04-30 20:37 | 30.39967 | -82.09103 | 11956 ft | 357 kts | 259° |
| 2026-04-30 20:38 | 30.39642 | -82.11932 | 12726 ft | 353 kts | 268° |
| 2026-04-30 20:38 | 30.39692 | -82.14751 | 13248 ft | 359 kts | 276° |
| 2026-04-30 20:38 | 30.39959 | -82.17647 | 13797 ft | 363 kts | 276° |
| 2026-04-30 20:39 | 30.40492 | -82.23505 | 14994 ft | 369 kts | 276° |
| 2026-04-30 20:39 | 30.40754 | -82.26476 | 15553 ft | 373 kts | 276° |
| 2026-04-30 20:39 | 30.41014 | -82.29477 | 16101 ft | 376 kts | 276° |
| 2026-04-30 20:40 | 30.41534 | -82.35569 | 17130 ft | 382 kts | 275° |
| 2026-04-30 20:40 | 30.41792 | -82.38641 | 17649 ft | 384 kts | 275° |
| 2026-04-30 20:40 | 30.42050 | -82.41699 | 18077 ft | 388 kts | 275° |
| 2026-04-30 20:41 | 30.42578 | -82.47969 | 19010 ft | 393 kts | 275° |
| 2026-04-30 20:41 | 30.42842 | -82.51126 | 19483 ft | 394 kts | 275° |
| 2026-04-30 20:41 | 30.43105 | -82.54296 | 19927 ft | 396 kts | 275° |
| 2026-04-30 20:41 | 30.43370 | -82.57482 | 20367 ft | 398 kts | 275° |
| 2026-04-30 20:42 | 30.43636 | -82.60688 | 20776 ft | 401 kts | 275° |
| 2026-04-30 20:42 | 30.43903 | -82.63910 | 21149 ft | 403 kts | 275° |
| 2026-04-30 20:42 | 30.44480 | -82.70345 | 21947 ft | 405 kts | 277° |
| 2026-04-30 20:43 | 30.44846 | -82.73589 | 22292 ft | 407 kts | 277° |
| 2026-04-30 20:43 | 30.45231 | -82.76848 | 22576 ft | 410 kts | 277° |
| 2026-04-30 20:43 | 30.45618 | -82.80126 | 22893 ft | 411 kts | 277° |
| 2026-04-30 20:44 | 30.46385 | -82.86720 | 23518 ft | 414 kts | 277° |
| 2026-04-30 20:44 | 30.46760 | -82.90028 | 23822 ft | 415 kts | 277° |
| 2026-04-30 20:44 | 30.47503 | -82.96672 | 24319 ft | 418 kts | 277° |
| 2026-04-30 20:45 | 30.48243 | -83.03327 | 24833 ft | 420 kts | 277° |
| 2026-04-30 20:45 | 30.48615 | -83.06693 | 25088 ft | 421 kts | 277° |
| 2026-04-30 20:45 | 30.48988 | -83.10060 | 25324 ft | 422 kts | 277° |
| 2026-04-30 20:46 | 30.50106 | -83.20225 | 25987 ft | 425 kts | 277° |
| 2026-04-30 20:46 | 30.50477 | -83.23628 | 26185 ft | 426 kts | 277° |
| 2026-04-30 20:47 | 30.51220 | -83.30423 | 26599 ft | 428 kts | 277° |
| 2026-04-30 20:47 | 30.51592 | -83.33849 | 26862 ft | 427 kts | 277° |
| 2026-04-30 20:48 | 30.52331 | -83.40669 | 27448 ft | 424 kts | 278° |
| 2026-04-30 20:48 | 30.52697 | -83.44062 | 27781 ft | 423 kts | 278° |
| 2026-04-30 20:48 | 30.53061 | -83.47441 | 28072 ft | 422 kts | 278° |
| 2026-04-30 20:48 | 30.53417 | -83.50768 | 28369 ft | 421 kts | 277° |
| 2026-04-30 20:49 | 30.53666 | -83.54147 | 28708 ft | 420 kts | 274° |
| 2026-04-30 20:49 | 30.53765 | -83.57524 | 29047 ft | 419 kts | 273° |
| 2026-04-30 20:49 | 30.53825 | -83.60887 | 29378 ft | 417 kts | 273° |
| 2026-04-30 20:50 | 30.53946 | -83.67594 | 30058 ft | 414 kts | 273° |
| 2026-04-30 20:50 | 30.54021 | -83.70929 | 30389 ft | 413 kts | 274° |
| 2026-04-30 20:50 | 30.54102 | -83.74262 | 30638 ft | 414 kts | 274° |
| 2026-04-30 20:50 | 30.54185 | -83.77557 | 30898 ft | 414 kts | 274° |
| 2026-04-30 20:51 | 30.54268 | -83.80894 | 31247 ft | 413 kts | 274° |
| 2026-04-30 20:51 | 30.54429 | -83.87528 | 31938 ft | 411 kts | 275° |
| 2026-04-30 20:51 | 30.54686 | -83.90817 | 32224 ft | 409 kts | 281° |
| 2026-04-30 20:52 | 30.55312 | -83.94022 | 32536 ft | 407 kts | 287° |
| 2026-04-30 20:52 | 30.56121 | -83.97160 | 32882 ft | 405 kts | 287° |
| 2026-04-30 20:52 | 30.57698 | -84.03357 | 33612 ft | 401 kts | 287° |
| 2026-04-30 20:53 | 30.58475 | -84.06448 | 33912 ft | 400 kts | 287° |
| 2026-04-30 20:53 | 30.60023 | -84.12658 | 33908 ft | 400 kts | 287° |
| 2026-04-30 20:54 | 30.62322 | -84.21938 | 33911 ft | 398 kts | 287° |
| 2026-04-30 20:55 | 30.64597 | -84.31150 | 33908 ft | 397 kts | 287° |
| 2026-04-30 20:55 | 30.66114 | -84.37309 | 33929 ft | 396 kts | 287° |
| 2026-04-30 20:56 | 30.68378 | -84.46531 | 33937 ft | 395 kts | 287° |
| 2026-04-30 20:57 | 30.70624 | -84.55702 | 33938 ft | 395 kts | 287° |
| 2026-04-30 20:57 | 30.72124 | -84.61843 | 33935 ft | 395 kts | 287° |
| 2026-04-30 20:58 | 30.74360 | -84.71041 | 33934 ft | 394 kts | 287° |
| 2026-04-30 20:58 | 30.75837 | -84.77131 | 33935 ft | 394 kts | 287° |
| 2026-04-30 20:59 | 30.77640 | -84.86444 | 33932 ft | 396 kts | 276° |
| 2026-04-30 21:00 | 30.78032 | -84.99245 | 33937 ft | 396 kts | 275° |
| 2026-04-30 21:01 | 30.78346 | -85.08780 | 33933 ft | 395 kts | 275° |
| 2026-04-30 21:02 | 30.78662 | -85.18338 | 33932 ft | 394 kts | 275° |
| 2026-04-30 21:02 | 30.78867 | -85.24708 | 33933 ft | 394 kts | 275° |
| 2026-04-30 21:03 | 30.79066 | -85.31034 | 33936 ft | 394 kts | 275° |
| 2026-04-30 21:03 | 30.79268 | -85.37408 | 33946 ft | 395 kts | 275° |
| 2026-04-30 21:04 | 30.79465 | -85.43788 | 33948 ft | 395 kts | 275° |
| 2026-04-30 21:04 | 30.79753 | -85.53301 | 33935 ft | 393 kts | 274° |
| 2026-04-30 21:05 | 30.79939 | -85.59617 | 33933 ft | 390 kts | 274° |
| 2026-04-30 21:05 | 30.80122 | -85.65908 | 33932 ft | 389 kts | 274° |
| 2026-04-30 21:06 | 30.80303 | -85.72183 | 33936 ft | 388 kts | 274° |
| 2026-04-30 21:06 | 30.80476 | -85.78400 | 33939 ft | 387 kts | 273° |
| 2026-04-30 21:07 | 30.80649 | -85.84650 | 33950 ft | 386 kts | 273° |
| 2026-04-30 21:07 | 30.80822 | -85.90894 | 33947 ft | 386 kts | 273° |
| 2026-04-30 21:08 | 30.80988 | -85.97146 | 33948 ft | 387 kts | 273° |
| 2026-04-30 21:08 | 30.81152 | -86.03406 | 33953 ft | 388 kts | 273° |
| 2026-04-30 21:09 | 30.81312 | -86.09648 | 33961 ft | 389 kts | 273° |
| 2026-04-30 21:09 | 30.81471 | -86.15947 | 33971 ft | 390 kts | 273° |
| 2026-04-30 21:10 | 30.81617 | -86.22259 | 33964 ft | 391 kts | 273° |
| 2026-04-30 21:10 | 30.81762 | -86.28575 | 33960 ft | 391 kts | 273° |
| 2026-04-30 21:11 | 30.81902 | -86.34863 | 33971 ft | 391 kts | 273° |
| 2026-04-30 21:11 | 30.82043 | -86.41192 | 33969 ft | 391 kts | 273° |
| 2026-04-30 21:12 | 30.82181 | -86.47523 | 33977 ft | 391 kts | 273° |
| 2026-04-30 21:12 | 30.82309 | -86.53625 | 33979 ft | 391 kts | 273° |
| 2026-04-30 21:13 | 30.82439 | -86.59894 | 33985 ft | 391 kts | 273° |
| 2026-04-30 21:13 | 30.82566 | -86.66208 | 33984 ft | 390 kts | 272° |
| 2026-04-30 21:14 | 30.82393 | -86.72517 | 33983 ft | 390 kts | 269° |
| 2026-04-30 21:14 | 30.82026 | -86.78821 | 33972 ft | 390 kts | 268° |
| 2026-04-30 21:15 | 30.81671 | -86.85080 | 33961 ft | 390 kts | 269° |
| 2026-04-30 21:15 | 30.81323 | -86.91378 | 33962 ft | 390 kts | 269° |
| 2026-04-30 21:16 | 30.80974 | -86.97676 | 33958 ft | 390 kts | 268° |
| 2026-04-30 21:16 | 30.80621 | -87.03980 | 33954 ft | 391 kts | 268° |
| 2026-04-30 21:17 | 30.80267 | -87.10233 | 33958 ft | 390 kts | 268° |
| 2026-04-30 21:17 | 30.79910 | -87.16537 | 33949 ft | 391 kts | 268° |
| 2026-04-30 21:18 | 30.79551 | -87.22848 | 33957 ft | 391 kts | 268° |
| 2026-04-30 21:18 | 30.79201 | -87.28907 | 33946 ft | 392 kts | 268° |
| 2026-04-30 21:19 | 30.78833 | -87.35235 | 33943 ft | 392 kts | 268° |
| 2026-04-30 21:19 | 30.78463 | -87.41553 | 33934 ft | 392 kts | 268° |
| 2026-04-30 21:20 | 30.78090 | -87.47888 | 33930 ft | 393 kts | 268° |
| 2026-04-30 21:20 | 30.77715 | -87.54149 | 33936 ft | 393 kts | 268° |
| 2026-04-30 21:21 | 30.77335 | -87.60491 | 33929 ft | 393 kts | 268° |
| 2026-04-30 21:22 | 30.76755 | -87.70028 | 33925 ft | 395 kts | 268° |
| 2026-04-30 21:23 | 30.75977 | -87.82728 | 33929 ft | 396 kts | 268° |
| 2026-04-30 21:23 | 30.75383 | -87.92306 | 33926 ft | 396 kts | 268° |
| 2026-04-30 21:24 | 30.74985 | -87.98686 | 33935 ft | 396 kts | 268° |
| 2026-04-30 21:24 | 30.74584 | -88.05066 | 33932 ft | 396 kts | 268° |
| 2026-04-30 21:25 | 30.73981 | -88.14593 | 33951 ft | 395 kts | 268° |
| 2026-04-30 21:26 | 30.73364 | -88.24151 | 33945 ft | 396 kts | 268° |
| 2026-04-30 21:27 | 30.72745 | -88.33679 | 33955 ft | 396 kts | 268° |
| 2026-04-30 21:27 | 30.71504 | -88.39926 | 33957 ft | 401 kts | 255° |
| 2026-04-30 21:28 | 30.68746 | -88.49123 | 33935 ft | 402 kts | 255° |
| 2026-04-30 21:29 | 30.66049 | -88.58276 | 33933 ft | 400 kts | 255° |
| 2026-04-30 21:30 | 30.61558 | -88.73533 | 33926 ft | 399 kts | 255° |
| 2026-04-30 21:31 | 30.57078 | -88.88702 | 33911 ft | 399 kts | 255° |
| 2026-04-30 21:32 | 30.54371 | -88.97820 | 33906 ft | 399 kts | 255° |
| 2026-04-30 21:32 | 30.52562 | -89.03898 | 33905 ft | 398 kts | 255° |
| 2026-04-30 21:33 | 30.49856 | -89.12965 | 33917 ft | 399 kts | 255° |
| 2026-04-30 21:34 | 30.48040 | -89.19046 | 33915 ft | 399 kts | 255° |
| 2026-04-30 21:34 | 30.45303 | -89.28187 | 33921 ft | 400 kts | 255° |
| 2026-04-30 21:35 | 30.43483 | -89.34242 | 33924 ft | 401 kts | 254° |
| 2026-04-30 21:35 | 30.41649 | -89.40337 | 33928 ft | 401 kts | 254° |
| 2026-04-30 21:36 | 30.39821 | -89.46431 | 33935 ft | 400 kts | 254° |
| 2026-04-30 21:37 | 30.36161 | -89.58584 | 33929 ft | 401 kts | 254° |
| 2026-04-30 21:37 | 30.34319 | -89.64686 | 33926 ft | 402 kts | 254° |
| 2026-04-30 21:38 | 30.32469 | -89.70811 | 33926 ft | 403 kts | 254° |
| 2026-04-30 21:38 | 30.30613 | -89.76943 | 33923 ft | 404 kts | 253° |
| 2026-04-30 21:39 | 30.28749 | -89.83083 | 33926 ft | 405 kts | 253° |
| 2026-04-30 21:39 | 30.26892 | -89.89191 | 33924 ft | 406 kts | 253° |
| 2026-04-30 21:40 | 30.25016 | -89.95346 | 33928 ft | 406 kts | 253° |
| 2026-04-30 21:40 | 30.23139 | -90.01504 | 33927 ft | 406 kts | 253° |
| 2026-04-30 21:41 | 30.21275 | -90.07598 | 33924 ft | 406 kts | 253° |
| 2026-04-30 21:41 | 30.19400 | -90.13715 | 33929 ft | 406 kts | 253° |
| 2026-04-30 21:42 | 30.17508 | -90.19874 | 33917 ft | 406 kts | 253° |
| 2026-04-30 21:42 | 30.15616 | -90.26025 | 33917 ft | 406 kts | 253° |
| 2026-04-30 21:43 | 30.14045 | -90.31125 | 33909 ft | 405 kts | 253° |
| 2026-04-30 21:43 | 30.11847 | -90.38243 | 33905 ft | 405 kts | 253° |
| 2026-04-30 21:44 | 30.09953 | -90.44364 | 33907 ft | 405 kts | 253° |
| 2026-04-30 21:44 | 30.08062 | -90.50468 | 33909 ft | 404 kts | 253° |
| 2026-04-30 21:45 | 30.06167 | -90.56571 | 33908 ft | 403 kts | 253° |
| 2026-04-30 21:45 | 30.04276 | -90.62652 | 33908 ft | 403 kts | 253° |
| 2026-04-30 21:46 | 30.02394 | -90.68693 | 33906 ft | 403 kts | 253° |
| 2026-04-30 21:46 | 30.00496 | -90.74771 | 33906 ft | 402 kts | 253° |
| 2026-04-30 21:47 | 29.98596 | -90.80843 | 33900 ft | 403 kts | 253° |
| 2026-04-30 21:47 | 29.96690 | -90.86925 | 33906 ft | 404 kts | 253° |
| 2026-04-30 21:48 | 29.94789 | -90.92983 | 33909 ft | 405 kts | 253° |
| 2026-04-30 21:48 | 29.92864 | -90.99105 | 33914 ft | 407 kts | 253° |
| 2026-04-30 21:49 | 29.90931 | -91.05239 | 33917 ft | 408 kts | 253° |
| 2026-04-30 21:49 | 29.88988 | -91.11398 | 33917 ft | 409 kts | 253° |
| 2026-04-30 21:50 | 29.87048 | -91.17531 | 33916 ft | 410 kts | 253° |
| 2026-04-30 21:50 | 29.85090 | -91.23706 | 33908 ft | 410 kts | 253° |
| 2026-04-30 21:51 | 29.83131 | -91.29874 | 33909 ft | 410 kts | 252° |
| 2026-04-30 21:51 | 29.81172 | -91.36031 | 33907 ft | 409 kts | 252° |
| 2026-04-30 21:52 | 29.79216 | -91.42173 | 33908 ft | 409 kts | 252° |
| 2026-04-30 21:52 | 29.77260 | -91.48306 | 33908 ft | 408 kts | 252° |
| 2026-04-30 21:53 | 29.75313 | -91.54388 | 33908 ft | 407 kts | 252° |
| 2026-04-30 21:53 | 29.73354 | -91.60499 | 33910 ft | 407 kts | 252° |
| 2026-04-30 21:54 | 29.71398 | -91.66599 | 33914 ft | 406 kts | 252° |
| 2026-04-30 21:54 | 29.69440 | -91.72686 | 33915 ft | 406 kts | 252° |
| 2026-04-30 21:55 | 29.67493 | -91.78734 | 33918 ft | 406 kts | 252° |
| 2026-04-30 21:55 | 29.65545 | -91.84768 | 33915 ft | 406 kts | 252° |
| 2026-04-30 21:56 | 29.63578 | -91.90848 | 33918 ft | 406 kts | 252° |
| 2026-04-30 21:56 | 29.61608 | -91.96935 | 33911 ft | 407 kts | 252° |
| 2026-04-30 21:57 | 29.59644 | -92.02991 | 33910 ft | 407 kts | 252° |
| 2026-04-30 21:57 | 29.57664 | -92.09082 | 33906 ft | 407 kts | 252° |
| 2026-04-30 21:58 | 29.55681 | -92.15171 | 33906 ft | 407 kts | 252° |
| 2026-04-30 21:58 | 29.53699 | -92.21246 | 33908 ft | 407 kts | 252° |
| 2026-04-30 21:59 | 29.51714 | -92.27325 | 33910 ft | 407 kts | 252° |
| 2026-04-30 22:00 | 29.48743 | -92.36402 | 33917 ft | 407 kts | 252° |
| 2026-04-30 22:00 | 29.45904 | -92.45588 | 33909 ft | 405 kts | 261° |
| 2026-04-30 22:01 | 29.45704 | -92.48800 | 33921 ft | 404 kts | 272° |
| 2026-04-30 22:01 | 29.45846 | -92.52009 | 33925 ft | 404 kts | 273° |
| 2026-04-30 22:01 | 29.46212 | -92.58447 | 33912 ft | 405 kts | 273° |
| 2026-04-30 22:02 | 29.46552 | -92.64854 | 33925 ft | 405 kts | 273° |
| 2026-04-30 22:02 | 29.46862 | -92.71320 | 33926 ft | 406 kts | 273° |
| 2026-04-30 22:03 | 29.47157 | -92.77793 | 33934 ft | 406 kts | 273° |
| 2026-04-30 22:03 | 29.47449 | -92.84278 | 33937 ft | 407 kts | 273° |
| 2026-04-30 22:04 | 29.47737 | -92.90726 | 33934 ft | 407 kts | 273° |
| 2026-04-30 22:05 | 29.48167 | -93.00459 | 33936 ft | 407 kts | 273° |
| 2026-04-30 22:05 | 29.48450 | -93.06955 | 33934 ft | 408 kts | 273° |
| 2026-04-30 22:06 | 29.48721 | -93.13453 | 33923 ft | 407 kts | 272° |
| 2026-04-30 22:06 | 29.49102 | -93.23134 | 33917 ft | 406 kts | 273° |
| 2026-04-30 22:07 | 29.49354 | -93.29609 | 33915 ft | 406 kts | 273° |
| 2026-04-30 22:07 | 29.49606 | -93.36081 | 33762 ft | 407 kts | 273° |
| 2026-04-30 22:08 | 29.49731 | -93.39344 | 33198 ft | 409 kts | 273° |
| 2026-04-30 22:08 | 29.49855 | -93.42589 | 32543 ft | 406 kts | 273° |
| 2026-04-30 22:08 | 29.49980 | -93.45817 | 32012 ft | 402 kts | 273° |
| 2026-04-30 22:08 | 29.50101 | -93.49002 | 31509 ft | 397 kts | 272° |
| 2026-04-30 22:09 | 29.50216 | -93.52108 | 31019 ft | 393 kts | 272° |
| 2026-04-30 22:09 | 29.50330 | -93.55221 | 30527 ft | 388 kts | 272° |
| 2026-04-30 22:09 | 29.50443 | -93.58292 | 30036 ft | 384 kts | 272° |
| 2026-04-30 22:09 | 29.50555 | -93.61332 | 29547 ft | 379 kts | 272° |
| 2026-04-30 22:10 | 29.50665 | -93.64337 | 29055 ft | 375 kts | 272° |
| 2026-04-30 22:10 | 29.50773 | -93.67311 | 28567 ft | 371 kts | 272° |
| 2026-04-30 22:10 | 29.50880 | -93.70258 | 28075 ft | 367 kts | 272° |
| 2026-04-30 22:10 | 29.50985 | -93.73173 | 27590 ft | 364 kts | 272° |
| 2026-04-30 22:11 | 29.51189 | -93.78901 | 26628 ft | 358 kts | 272° |
| 2026-04-30 22:11 | 29.51289 | -93.81745 | 26159 ft | 358 kts | 272° |
| 2026-04-30 22:11 | 29.51390 | -93.84640 | 25693 ft | 369 kts | 272° |
| 2026-04-30 22:12 | 29.51493 | -93.87605 | 25196 ft | 372 kts | 272° |
| 2026-04-30 22:12 | 29.51596 | -93.90560 | 24693 ft | 368 kts | 272° |
| 2026-04-30 22:12 | 29.51696 | -93.93471 | 24389 ft | 359 kts | 272° |
| 2026-04-30 22:12 | 29.51792 | -93.96288 | 24034 ft | 351 kts | 272° |
| 2026-04-30 22:13 | 29.51888 | -93.99079 | 23577 ft | 348 kts | 272° |
| 2026-04-30 22:13 | 29.51952 | -94.00912 | 23266 ft | 345 kts | 272° |
| 2026-04-30 22:13 | 29.52077 | -94.04534 | 22689 ft | 341 kts | 272° |
| 2026-04-30 22:13 | 29.52169 | -94.07240 | 22239 ft | 337 kts | 272° |
| 2026-04-30 22:14 | 29.52260 | -94.09916 | 21802 ft | 334 kts | 272° |
| 2026-04-30 22:14 | 29.52351 | -94.12563 | 21367 ft | 330 kts | 272° |
| 2026-04-30 22:14 | 29.52439 | -94.15177 | 20936 ft | 327 kts | 272° |
| 2026-04-30 22:14 | 29.52525 | -94.17770 | 20509 ft | 323 kts | 272° |
| 2026-04-30 22:15 | 29.52582 | -94.19473 | 20241 ft | 320 kts | 272° |
| 2026-04-30 22:15 | 29.52669 | -94.22006 | 19827 ft | 315 kts | 272° |
| 2026-04-30 22:15 | 29.52768 | -94.25311 | 19271 ft | 307 kts | 271° |
| 2026-04-30 22:15 | 29.52837 | -94.27773 | 18872 ft | 309 kts | 272° |
| 2026-04-30 22:16 | 29.53197 | -94.30210 | 18473 ft | 312 kts | 287° |
| 2026-04-30 22:16 | 29.54040 | -94.32521 | 18100 ft | 319 kts | 292° |
| 2026-04-30 22:17 | 29.56747 | -94.38631 | 16972 ft | 319 kts | 293° |
| 2026-04-30 22:17 | 29.57738 | -94.40881 | 16654 ft | 312 kts | 293° |
| 2026-04-30 22:17 | 29.59956 | -94.46017 | 15733 ft | 307 kts | 292° |
| 2026-04-30 22:18 | 29.60899 | -94.48230 | 15333 ft | 309 kts | 292° |
| 2026-04-30 22:18 | 29.62489 | -94.51944 | 14755 ft | 307 kts | 292° |
| 2026-04-30 22:19 | 29.64415 | -94.56424 | 14647 ft | 326 kts | 292° |
| 2026-04-30 22:19 | 29.65424 | -94.58789 | 14391 ft | 331 kts | 292° |
| 2026-04-30 22:19 | 29.67769 | -94.64273 | 13819 ft | 329 kts | 293° |
| 2026-04-30 22:20 | 29.68463 | -94.65862 | 13633 ft | 330 kts | 292° |
| 2026-04-30 22:20 | 29.70465 | -94.70599 | 13131 ft | 332 kts | 291° |
| 2026-04-30 22:20 | 29.71481 | -94.72980 | 12889 ft | 330 kts | 292° |
| 2026-04-30 22:21 | 29.72493 | -94.75309 | 12374 ft | 323 kts | 292° |
| 2026-04-30 22:21 | 29.73485 | -94.77575 | 12064 ft | 308 kts | 292° |
| 2026-04-30 22:21 | 29.74432 | -94.79710 | 11804 ft | 294 kts | 292° |
| 2026-04-30 22:21 | 29.75361 | -94.81794 | 11249 ft | 292 kts | 293° |
| 2026-04-30 22:22 | 29.76275 | -94.83876 | 10617 ft | 292 kts | 292° |
| 2026-04-30 22:22 | 29.77160 | -94.85961 | 10260 ft | 289 kts | 293° |
| 2026-04-30 22:22 | 29.78011 | -94.88032 | 9950 ft | 290 kts | 292° |
| 2026-04-30 22:22 | 29.78859 | -94.90139 | 9671 ft | 290 kts | 292° |
| 2026-04-30 22:23 | 29.79693 | -94.92255 | 9391 ft | 290 kts | 292° |
| 2026-04-30 22:23 | 29.80512 | -94.94371 | 9113 ft | 289 kts | 292° |
| 2026-04-30 22:23 | 29.81317 | -94.96491 | 8835 ft | 288 kts | 292° |
| 2026-04-30 22:23 | 29.82109 | -94.98608 | 8564 ft | 287 kts | 292° |
| 2026-04-30 22:24 | 29.82894 | -95.00717 | 8294 ft | 286 kts | 292° |
| 2026-04-30 22:24 | 29.83676 | -95.02819 | 8025 ft | 285 kts | 292° |
| 2026-04-30 22:24 | 29.84455 | -95.04915 | 7757 ft | 284 kts | 292° |
| 2026-04-30 22:24 | 29.85225 | -95.06988 | 7482 ft | 280 kts | 293° |
| 2026-04-30 22:25 | 29.86200 | -95.08881 | 7253 ft | 276 kts | 307° |
| 2026-04-30 22:25 | 29.87339 | -95.10639 | 6975 ft | 272 kts | 298° |
| 2026-04-30 22:25 | 29.87909 | -95.12680 | 6729 ft | 266 kts | 281° |
| 2026-04-30 22:25 | 29.88300 | -95.14764 | 6491 ft | 267 kts | 282° |
| 2026-04-30 22:26 | 29.89117 | -95.18940 | 6055 ft | 266 kts | 280° |
| 2026-04-30 22:26 | 29.89249 | -95.21052 | 6001 ft | 264 kts | 268° |
| 2026-04-30 22:26 | 29.89204 | -95.23155 | 5997 ft | 262 kts | 268° |
| 2026-04-30 22:27 | 29.89188 | -95.25257 | 5994 ft | 262 kts | 269° |
| 2026-04-30 22:27 | 29.89184 | -95.27351 | 5999 ft | 267 kts | 269° |
| 2026-04-30 22:27 | 29.89194 | -95.31615 | 5984 ft | 265 kts | 269° |
| 2026-04-30 22:28 | 29.89203 | -95.35855 | 5977 ft | 264 kts | 269° |
| 2026-04-30 22:28 | 29.89208 | -95.37964 | 5979 ft | 263 kts | 269° |
| 2026-04-30 22:29 | 29.89222 | -95.44434 | 5316 ft | 268 kts | 270° |
| 2026-04-30 22:29 | 29.89227 | -95.46537 | 5070 ft | 265 kts | 269° |
| 2026-04-30 22:30 | 29.89077 | -95.54845 | 4096 ft | 249 kts | 269° |
| 2026-04-30 22:31 | 29.89429 | -95.60436 | 3307 ft | 224 kts | 303° |
| 2026-04-30 22:32 | 29.93198 | -95.62149 | 3003 ft | 185 kts | 352° |
| 2026-04-30 22:32 | 29.95743 | -95.62327 | 2997 ft | 188 kts | 21° |
| 2026-04-30 22:33 | 29.97704 | -95.58490 | 3024 ft | 193 kts | 68° |
| 2026-04-30 22:33 | 29.98646 | -95.55607 | 3020 ft | 193 kts | 68° |
| 2026-04-30 22:34 | 29.99349 | -95.51345 | 2757 ft | 170 kts | 89° |
| 2026-04-30 22:35 | 29.99355 | -95.48642 | 2336 ft | 166 kts | 88° |
| 2026-04-30 22:36 | 29.99349 | -95.43584 | 1481 ft | 153 kts | 87° |
| 2026-04-30 22:36 | 29.99348 | -95.42359 | 1287 ft | 151 kts | 86° |
| 2026-04-30 22:37 | 29.99346 | -95.38774 | 692 ft | 150 kts | 87° |
| 2026-04-30 22:37 | 29.99346 | -95.37568 | 489 ft | 151 kts | 88° |
| 2026-04-30 22:37 | 29.99340 | -95.35146 | 122 ft | 148 kts | 91° |
| 2026-04-30 22:38 | 29.99342 | -95.33480 | 107 ft | 47 kts | 90° |
| 2026-04-30 22:38 | 29.99269 | -95.33209 | 107 ft | 0 kts | 120° |
| 2026-04-30 22:39 | 29.99167 | -95.33035 | 106 ft | 19 kts | 155° |
| 2026-04-30 22:40 | 29.99091 | -95.33523 | 105 ft | 26 kts | 270° |
| 2026-04-30 22:41 | 29.99087 | -95.34145 | 106 ft | 21 kts | 270° |
| 2026-04-30 22:41 | 29.98920 | -95.34240 | 106 ft | 13 kts | 127° |
| 2026-04-30 22:42 | 29.98900 | -95.34201 | 105 ft | 0 kts | 118° |